Date,TemperatureHighF,TemperatureAvgF,TemperatureLowF,DewpointHighF,DewpointAvgF,DewpointLowF,HumidityHigh,HumidityAvg,HumidityLow,PressureMaxIn,PressureMinIn,WindSpeedMaxMPH,WindSpeedAvgMPH,GustSpeedMaxMPH,PrecipitationSumIn
2013-1-1,27.0,21.7,17.6,17.0,9.0,5.7,63,54,47,28.97,28.85,10,4,13,0.00
2013-1-2,26.4,22.0,17.6,14.8,11.0,6.0,64,58,56,29.00,28.88,10,3,13,0.00
2013-1-3,28.4,22.8,15.3,21.1,12.9,3.1,73,62,52,29.00,28.88,9,4,12,0.00
2013-1-4,27.8,24.6,20.9,19.4,14.9,11.5,73,63,53,29.00,28.88,17,7,20,0.00
2013-1-5,33.0,27.1,20.1,30.2,21.6,14.1,96,78,58,29.09,28.85,10,3,13,0.00
2013-1-6,33.4,31.7,30.2,31.0,28.8,25.0,93,88,78,29.09,28.73,13,5,13,0.00
2013-1-7,31.9,28.9,25.5,26.9,22.0,18.4,84,72,58,29.18,28.97,17,4,18,0.00
2013-1-8,38.8,30.3,24.9,24.3,21.0,18.2,76,67,53,29.06,28.97,12,3,12,0.00
2013-1-9,42.4,36.2,30.2,29.6,24.3,18.3,78,62,44,29.26,28.85,19,6,24,0.00
2013-1-10,39.4,31.9,24.3,30.4,22.9,18.6,87,68,54,29.38,28.97,15,-164,15,0.00
2013-1-11,51.8,42.5,33.6,51.2,41.6,30.7,100,97,88,28.97,28.61,15,-402,19,0.00
2013-1-12,57.6,49.7,41.7,46.6,43.4,36.7,100,80,55,28.79,28.64,12,-325,15,0.00
2013-1-13,40.7,34.0,26.4,37.0,33.7,24.6,100,99,83,28.88,28.61,15,-49,15,0.00
2013-1-14,26.4,22.3,18.0,24.6,17.9,13.9,91,81,73,29.26,28.88,15,-38,15,0.00
2013-1-15,29.0,21.8,14.6,20.5,15.4,10.4,82,74,54,29.23,28.97,8,-103,8,0.00
2013-1-16,33.0,27.0,20.7,24.1,16.8,13.7,78,63,45,28.97,28.64,13,-79,15,0.00
2013-1-17,32.2,27.6,18.9,25.6,17.1,4.6,78,62,48,29.12,28.79,14,-294,14,0.00
2013-1-18,32.7,25.4,16.6,17.1,11.1,3.7,55,51,44,29.23,28.79,17,-539,22,0.00
2013-1-19,46.1,39.1,32.6,30.1,24.2,16.5,68,55,47,28.79,28.47,20,8,25,0.00
2013-1-20,40.5,20.5,14.9,27.0,5.7,1.2,57,49,43,29.00,28.44,28,-30,34,0.00
2013-1-21,19.3,13.4,4.4,7.4,1.8,-7.7,64,56,50,28.97,28.79,15,-74,15,0.00
2013-1-22,13.2,6.0,-2.3,0.3,-6.5,-14.0,53,52,47,29.09,28.94,8,-514,8,0.00
2013-1-23,21.9,15.3,10.2,7.8,2.4,-2.6,60,52,47,29.09,28.88,0,-999,0,0.00
2013-1-24,20.2,13.6,7.0,4.2,1.0,-2.9,60,53,44,29.41,28.94,0,-999,0,0.00
2013-1-25,27.6,21.9,15.9,15.5,9.8,1.0,67,56,47,29.29,28.82,9,-548,10,0.00
2013-1-26,29.5,25.0,21.9,16.3,13.9,10.7,68,59,50,29.23,28.85,13,3,13,0.00
2013-1-27,33.6,26.7,19.5,27.2,15.2,8.1,81,59,49,29.26,28.88,21,5,24,0.00
2013-1-28,67.8,40.2,32.2,44.6,40.1,27.0,100,100,81,28.91,28.70,10,-60,12,0.00
2013-1-29,54.8,46.7,35.4,54.8,46.7,35.4,100,100,100,28.85,28.29,22,6,25,0.00
2013-1-30,55.8,46.7,28.7,55.8,46.5,24.3,100,99,83,28.29,28.02,23,-287,24,0.00
2013-1-31,27.6,21.5,15.7,23.6,14.2,8.0,86,71,57,28.73,28.17,25,-177,25,0.00